createdAt,value
2022-12-31T00:00:07.794Z,831.2580
2022-12-31T00:00:18.982Z,826.6250
2022-12-31T00:00:30.154Z,832.2940
2022-12-31T00:00:41.303Z,834.3750
2022-12-31T00:00:52.411Z,833.3330
2022-12-31T00:01:03.486Z,828.1640
2022-12-31T00:01:14.558Z,834.3750
2022-12-31T00:01:25.641Z,829.7080
2022-12-31T00:01:36.719Z,827.6500
2022-12-31T00:01:47.803Z,827.6500
2022-12-31T00:01:59.019Z,830.2240
2022-12-31T00:02:10.491Z,829.1930
2022-12-31T00:02:21.654Z,825.6030
2022-12-31T00:02:32.903Z,827.6500
2022-12-31T00:02:44.154Z,832.2940
2022-12-31T00:02:55.363Z,826.1140
2022-12-31T00:03:06.558Z,830.7410
2022-12-31T00:03:17.846Z,828.1640
2022-12-31T00:03:29.156Z,832.8130
2022-12-31T00:03:40.225Z,826.1140
2022-12-31T00:03:51.278Z,825.0930
2022-12-31T00:04:02.340Z,829.1930
2022-12-31T00:04:13.437Z,827.1380
2022-12-31T00:04:24.585Z,826.6250
2022-12-31T00:04:35.645Z,830.7410
2022-12-31T00:04:46.719Z,826.1140
2022-12-31T00:04:57.788Z,825.0930
2022-12-31T00:05:08.851Z,832.8130
2022-12-31T00:05:19.909Z,831.7760
2022-12-31T00:05:30.948Z,832.2940
2022-12-31T00:05:42.019Z,826.1140
2022-12-31T00:05:53.099Z,829.7080
2022-12-31T00:06:04.172Z,826.1140
2022-12-31T00:06:15.297Z,827.1380
2022-12-31T00:06:26.377Z,827.1380
2022-12-31T00:06:37.457Z,825.6030
2022-12-31T00:06:48.508Z,824.5830
2022-12-31T00:06:59.548Z,825.0930
2022-12-31T00:07:10.659Z,832.2940
2022-12-31T00:07:21.750Z,830.2240
2022-12-31T00:07:47.801Z,829.7080
2022-12-31T00:07:58.858Z,800.3600
2022-12-31T00:08:09.917Z,806.6470
2022-12-31T00:08:20.985Z,810.0730
2022-12-31T00:08:32.038Z,817.0130
2022-12-31T00:08:43.097Z,811.0570
2022-12-31T00:08:54.161Z,821.0330
2022-12-31T00:09:05.239Z,825.0930
2022-12-31T00:09:16.298Z,817.5140
2022-12-31T00:09:27.366Z,822.0440
2022-12-31T00:09:38.450Z,815.0180
2022-12-31T00:09:49.514Z,813.5280
2022-12-31T00:10:00.601Z,815.0180
2022-12-31T00:10:11.649Z,815.0180
2022-12-31T00:10:22.730Z,818.0150
2022-12-31T00:10:33.816Z,823.0580
2022-12-31T00:10:44.881Z,818.5160
2022-12-31T00:10:55.934Z,818.0150
2022-12-31T00:11:06.977Z,818.5160
2022-12-31T00:11:18.038Z,825.0930
2022-12-31T00:11:29.118Z,818.0150
2022-12-31T00:11:40.177Z,817.5140
2022-12-31T00:11:51.212Z,817.5140
2022-12-31T00:12:02.289Z,820.0250
2022-12-31T00:12:13.406Z,822.0440
2022-12-31T00:12:24.452Z,820.0250
2022-12-31T00:12:35.524Z,822.0440
2022-12-31T00:12:46.581Z,821.0330
2022-12-31T00:12:57.653Z,825.0930
2022-12-31T00:13:08.762Z,820.5290
2022-12-31T00:13:19.817Z,823.0580
2022-12-31T00:13:30.881Z,825.6030
2022-12-31T00:13:41.943Z,823.0580
2022-12-31T00:13:53.033Z,821.0330
2022-12-31T00:14:04.109Z,827.1380
2022-12-31T00:14:15.159Z,829.7080
2022-12-31T00:14:26.230Z,825.6030
2022-12-31T00:14:37.297Z,826.6250
2022-12-31T00:14:48.360Z,824.0740
2022-12-31T00:14:59.425Z,825.6030
2022-12-31T00:15:10.478Z,831.2580
2022-12-31T00:15:21.559Z,825.0930
2022-12-31T00:15:32.633Z,829.1930
2022-12-31T00:15:43.691Z,827.6500
2022-12-31T00:15:54.750Z,833.3330
2022-12-31T00:16:11.787Z,823.0580
2022-12-31T00:16:22.850Z,819.5210
2022-12-31T00:16:33.944Z,818.0150
2022-12-31T00:16:45.030Z,824.0740
2022-12-31T00:16:56.151Z,825.0930
2022-12-31T00:17:07.254Z,827.1380
2022-12-31T00:17:18.340Z,826.1140
2022-12-31T00:17:29.426Z,827.1380
2022-12-31T00:17:40.478Z,826.6250
2022-12-31T00:17:51.552Z,827.1380
2022-12-31T00:18:02.632Z,828.1640
2022-12-31T00:18:13.688Z,827.6500
2022-12-31T00:18:24.756Z,836.4660
2022-12-31T00:18:35.835Z,822.0440
2022-12-31T00:18:46.861Z,831.7760
2022-12-31T00:18:57.952Z,831.7760
2022-12-31T00:19:09.016Z,832.2940
2022-12-31T00:19:20.075Z,832.2940
2022-12-31T00:19:31.132Z,841.7400
2022-12-31T00:19:42.219Z,832.8130
2022-12-31T00:19:53.321Z,843.3350
2022-12-31T00:20:04.372Z,838.5680
2022-12-31T00:20:15.433Z,836.4660
2022-12-31T00:20:26.494Z,836.9910
2022-12-31T00:20:37.559Z,837.5160
2022-12-31T00:20:48.622Z,838.5680
2022-12-31T00:20:59.687Z,839.6230
2022-12-31T00:21:10.753Z,844.9370
2022-12-31T00:21:21.836Z,842.8030
2022-12-31T00:21:32.913Z,843.8690
2022-12-31T00:21:43.975Z,848.6970
2022-12-31T00:21:55.041Z,841.7400
2022-12-31T00:22:06.130Z,841.7400
2022-12-31T00:22:17.208Z,835.9420
2022-12-31T00:22:28.369Z,842.8030
2022-12-31T00:22:39.435Z,843.8690
2022-12-31T00:22:50.536Z,843.8690
2022-12-31T00:23:01.747Z,845.4720
2022-12-31T00:23:12.813Z,843.8690
2022-12-31T00:23:23.887Z,843.8690
2022-12-31T00:23:34.951Z,847.0810
2022-12-31T00:23:46.009Z,847.0810
2022-12-31T00:23:57.078Z,848.1580
2022-12-31T00:24:08.183Z,855.2210
2022-12-31T00:24:19.244Z,846.0080
2022-12-31T00:24:30.300Z,853.0350
2022-12-31T00:24:41.365Z,850.8600
2022-12-31T00:24:52.456Z,852.4900
2022-12-31T00:25:03.524Z,860.1800
2022-12-31T00:25:14.608Z,854.6730
2022-12-31T00:25:25.689Z,852.4900
2022-12-31T00:25:36.765Z,853.0350
2022-12-31T00:25:47.809Z,853.5810
2022-12-31T00:25:58.887Z,856.3180
2022-12-31T00:26:09.965Z,854.6730
2022-12-31T00:26:21.059Z,863.5190
2022-12-31T00:26:32.136Z,859.0730
2022-12-31T00:26:43.213Z,857.4180
2022-12-31T00:26:54.267Z,857.9690
2022-12-31T00:27:05.354Z,855.7690
2022-12-31T00:27:16.416Z,864.6370
2022-12-31T00:27:27.482Z,859.0730
2022-12-31T00:27:38.590Z,860.1800
2022-12-31T00:27:49.667Z,860.1800
2022-12-31T00:28:00.716Z,866.8830
2022-12-31T00:28:11.787Z,861.8460
2022-12-31T00:28:22.856Z,861.2900
2022-12-31T00:28:33.937Z,865.7590
2022-12-31T00:28:45.023Z,869.7070
2022-12-31T00:28:56.067Z,863.5190
2022-12-31T00:29:07.128Z,865.7590
2022-12-31T00:29:18.189Z,865.7590
2022-12-31T00:29:29.275Z,864.6370
2022-12-31T00:29:40.346Z,869.7070
2022-12-31T00:29:51.381Z,865.1980
2022-12-31T00:30:04.639Z,869.7070
2022-12-31T00:30:16.441Z,864.0780
2022-12-31T00:30:27.515Z,865.1980
2022-12-31T00:30:38.684Z,868.0100
2022-12-31T00:30:49.772Z,866.8830
2022-12-31T00:31:00.835Z,866.8830
2022-12-31T00:31:11.933Z,871.9790
2022-12-31T00:31:23.068Z,869.7070
2022-12-31T00:31:34.152Z,871.4100
2022-12-31T00:31:45.215Z,868.0100
2022-12-31T00:31:56.284Z,871.4100
2022-12-31T00:32:07.359Z,870.2740
2022-12-31T00:32:18.431Z,877.1350
2022-12-31T00:32:29.520Z,871.4100
2022-12-31T00:32:40.705Z,873.6910
2022-12-31T00:32:51.780Z,874.8360
2022-12-31T00:33:02.855Z,873.1200
2022-12-31T00:33:13.900Z,871.9790
2022-12-31T00:33:24.972Z,873.6910
2022-12-31T00:33:36.094Z,877.1350
2022-12-31T00:33:47.139Z,880.0260
2022-12-31T00:33:58.206Z,878.8680
2022-12-31T00:34:09.277Z,880.6070
2022-12-31T00:34:20.322Z,877.7120
2022-12-31T00:34:31.401Z,874.8360
2022-12-31T00:34:42.495Z,878.8680
2022-12-31T00:34:53.562Z,878.2890
2022-12-31T00:35:04.633Z,878.2890
2022-12-31T00:35:15.686Z,877.1350
2022-12-31T00:35:26.762Z,877.7120
2022-12-31T00:35:37.838Z,882.3530
2022-12-31T00:35:48.882Z,878.2890
2022-12-31T00:35:59.974Z,877.1350
2022-12-31T00:36:11.063Z,881.7700
2022-12-31T00:36:22.164Z,882.9370
2022-12-31T00:36:33.250Z,884.1060
2022-12-31T00:36:44.307Z,885.2790
2022-12-31T00:36:55.371Z,884.1060
2022-12-31T00:37:06.437Z,887.0430
2022-12-31T00:37:17.511Z,887.6330
2022-12-31T00:37:28.603Z,881.7700
2022-12-31T00:37:39.687Z,888.8150
2022-12-31T00:37:50.792Z,892.3800
2022-12-31T00:38:01.858Z,885.2790
2022-12-31T00:38:12.939Z,888.2240
2022-12-31T00:38:24.019Z,886.4540
2022-12-31T00:38:35.096Z,885.2790
2022-12-31T00:38:46.158Z,887.6330
2022-12-31T00:38:57.230Z,890.5940
2022-12-31T00:39:08.324Z,890.5940
2022-12-31T00:39:19.380Z,893.5740
2022-12-31T00:39:30.444Z,889.4070
2022-12-31T00:39:41.503Z,888.8150
2022-12-31T00:39:52.579Z,891.7840
2022-12-31T00:40:03.616Z,898.3850
2022-12-31T00:40:14.688Z,890.5940
2022-12-31T00:40:25.744Z,890.0000
2022-12-31T00:40:36.808Z,891.1880
2022-12-31T00:40:47.893Z,894.1730
2022-12-31T00:40:58.954Z,894.1730
2022-12-31T00:41:10.024Z,891.1880
2022-12-31T00:41:21.089Z,894.1730
2022-12-31T00:41:32.181Z,895.9730
2022-12-31T00:41:43.258Z,894.1730
2022-12-31T00:41:54.307Z,900.8100
2022-12-31T00:42:05.405Z,895.3720
2022-12-31T00:42:16.475Z,906.9290
2022-12-31T00:42:27.532Z,894.7720
2022-12-31T00:42:38.607Z,895.9730
2022-12-31T00:42:49.678Z,900.2020
2022-12-31T00:43:00.783Z,896.5750
2022-12-31T00:43:11.867Z,899.5960
2022-12-31T00:43:22.942Z,900.8100
2022-12-31T00:43:34.000Z,898.3850
2022-12-31T00:43:45.075Z,898.9900
2022-12-31T00:43:56.141Z,897.1770
2022-12-31T00:44:07.220Z,898.9900
2022-12-31T00:44:18.292Z,897.1770
2022-12-31T00:44:29.357Z,900.8100
2022-12-31T00:44:40.413Z,898.3850
2022-12-31T00:44:51.487Z,899.5960
2022-12-31T00:45:02.555Z,898.3850
2022-12-31T00:45:13.647Z,896.5750
2022-12-31T00:45:24.736Z,897.1770
2022-12-31T00:45:35.804Z,897.7810
2022-12-31T00:45:46.896Z,903.2480
2022-12-31T00:45:57.995Z,902.0270
2022-12-31T00:46:09.071Z,898.3850
2022-12-31T00:46:20.204Z,907.5460
2022-12-31T00:46:31.328Z,900.2020
2022-12-31T00:46:45.312Z,898.9900
2022-12-31T00:46:56.409Z,895.3720
2022-12-31T00:47:07.473Z,894.7720
2022-12-31T00:47:18.547Z,894.7720
2022-12-31T00:47:29.618Z,900.2020
2022-12-31T00:47:40.682Z,905.0850
2022-12-31T00:47:51.750Z,896.5750
2022-12-31T00:48:02.868Z,902.0270
2022-12-31T00:48:13.942Z,906.9290
2022-12-31T00:48:25.043Z,913.1330
2022-12-31T00:48:36.134Z,900.8100
2022-12-31T00:48:47.194Z,900.8100
2022-12-31T00:48:58.284Z,907.5460
2022-12-31T00:49:09.362Z,900.8100
2022-12-31T00:49:20.445Z,900.2020
2022-12-31T00:49:31.535Z,900.2020
2022-12-31T00:49:42.601Z,902.6370
2022-12-31T00:49:53.662Z,903.2480
2022-12-31T00:50:04.718Z,903.2480
2022-12-31T00:50:15.766Z,904.4720
2022-12-31T00:50:26.847Z,907.5460
2022-12-31T00:50:37.908Z,904.4720
2022-12-31T00:50:48.980Z,905.6990
2022-12-31T00:51:00.042Z,904.4720
2022-12-31T00:51:11.101Z,905.0850
2022-12-31T00:51:22.167Z,906.9290
2022-12-31T00:51:33.221Z,903.8590
2022-12-31T00:51:44.305Z,904.4720
2022-12-31T00:51:55.363Z,906.3140
2022-12-31T00:52:06.443Z,903.2480
2022-12-31T00:52:17.502Z,908.1630
2022-12-31T00:52:28.572Z,905.6990
2022-12-31T00:52:39.648Z,910.6410
2022-12-31T00:52:50.749Z,905.0850
2022-12-31T00:53:01.800Z,906.3140
2022-12-31T00:53:12.915Z,913.1330
2022-12-31T00:53:23.997Z,915.6380
2022-12-31T00:53:35.071Z,906.9290
2022-12-31T00:53:46.177Z,906.3140
2022-12-31T00:53:57.252Z,910.0200
2022-12-31T00:54:08.331Z,908.7810
2022-12-31T00:54:19.411Z,915.0100
2022-12-31T00:54:30.472Z,908.1630
2022-12-31T00:54:41.548Z,907.5460
2022-12-31T00:54:52.612Z,908.1630
2022-12-31T00:55:03.697Z,908.7810
2022-12-31T00:55:14.763Z,913.1330
2022-12-31T00:55:25.837Z,910.0200
2022-12-31T00:55:36.898Z,908.1630
2022-12-31T00:55:47.989Z,909.4010
2022-12-31T00:55:59.051Z,909.4010
2022-12-31T00:56:10.124Z,906.9290
2022-12-31T00:56:21.187Z,908.7810
2022-12-31T00:56:32.289Z,905.6990
2022-12-31T00:56:43.332Z,911.2630
2022-12-31T00:56:54.374Z,911.8850
2022-12-31T00:57:05.463Z,911.2630
2022-12-31T00:57:16.551Z,910.6410
2022-12-31T00:57:27.635Z,910.6410
2022-12-31T00:57:38.703Z,910.6410
2022-12-31T00:57:49.771Z,911.8850
2022-12-31T00:58:00.867Z,910.6410
2022-12-31T00:58:11.935Z,913.7580
2022-12-31T00:58:23.046Z,909.4010
2022-12-31T00:58:34.128Z,912.5090
2022-12-31T00:58:45.197Z,913.7580
2022-12-31T00:58:56.272Z,913.7580
2022-12-31T00:59:07.331Z,913.1330
2022-12-31T00:59:18.418Z,911.8850
2022-12-31T00:59:29.491Z,916.2660
2022-12-31T00:59:40.547Z,909.4010
2022-12-31T00:59:51.610Z,911.8850
2022-12-31T01:00:02.694Z,914.3840
2022-12-31T01:00:13.776Z,916.2660
2022-12-31T01:00:24.827Z,913.1330
2022-12-31T01:00:35.911Z,913.1330
2022-12-31T01:00:47.005Z,924.5150
2022-12-31T01:00:58.128Z,920.6900
2022-12-31T01:01:09.465Z,912.5090
2022-12-31T01:01:20.993Z,915.0100
2022-12-31T01:01:32.464Z,913.7580
2022-12-31T01:01:43.894Z,911.8850
2022-12-31T01:01:55.107Z,911.8850
2022-12-31T01:02:06.338Z,923.2370
2022-12-31T01:02:17.776Z,916.2660
2022-12-31T01:02:29.259Z,914.3840
2022-12-31T01:02:40.672Z,921.3250
2022-12-31T01:02:52.057Z,915.0100
2022-12-31T01:03:03.314Z,913.7580
2022-12-31T01:03:14.752Z,913.1330
2022-12-31T01:03:25.912Z,913.7580
2022-12-31T01:03:36.981Z,918.7890
2022-12-31T01:03:48.050Z,915.6380
2022-12-31T01:03:59.107Z,914.3840
2022-12-31T01:04:10.183Z,911.2630
2022-12-31T01:04:21.235Z,915.6380
2022-12-31T01:04:32.305Z,916.8960
2022-12-31T01:04:43.387Z,918.7890
2022-12-31T01:04:54.449Z,917.5260
2022-12-31T01:05:05.525Z,917.5260
2022-12-31T01:05:16.608Z,916.8960
2022-12-31T01:05:27.667Z,915.6380
2022-12-31T01:05:38.748Z,917.5260
2022-12-31T01:05:49.827Z,921.9610
2022-12-31T01:06:00.905Z,918.1570
2022-12-31T01:06:11.984Z,911.2630
2022-12-31T01:06:23.080Z,911.8850
2022-12-31T01:06:34.131Z,919.4210
2022-12-31T01:06:45.190Z,916.2660
2022-12-31T01:06:56.370Z,917.5260
2022-12-31T01:07:07.442Z,916.8960
2022-12-31T01:07:18.508Z,915.6380
2022-12-31T01:07:29.579Z,919.4210
2022-12-31T01:07:40.627Z,916.2660
2022-12-31T01:07:51.692Z,917.5260
2022-12-31T01:08:02.922Z,913.1330
2022-12-31T01:08:14.001Z,925.7980
2022-12-31T01:08:25.087Z,911.8850
2022-12-31T01:08:36.220Z,918.1570
2022-12-31T01:08:47.242Z,918.7890
2022-12-31T01:08:58.307Z,917.5260
2022-12-31T01:09:09.371Z,920.0550
2022-12-31T01:09:20.449Z,920.6900
2022-12-31T01:09:31.517Z,919.4210
2022-12-31T01:09:42.583Z,920.6900
2022-12-31T01:09:53.672Z,919.4210
2022-12-31T01:10:04.740Z,919.4210
2022-12-31T01:10:15.831Z,930.3140
2022-12-31T01:10:26.904Z,920.0550
2022-12-31T01:10:37.968Z,920.0550
2022-12-31T01:10:49.037Z,919.4210
2022-12-31T01:11:00.118Z,918.7890
2022-12-31T01:11:11.188Z,918.1570
2022-12-31T01:11:22.850Z,920.6900
2022-12-31T01:11:34.204Z,923.2370
2022-12-31T01:11:45.287Z,921.9610
2022-12-31T01:11:56.357Z,921.9610
2022-12-31T01:12:07.428Z,921.9610
2022-12-31T01:12:18.487Z,921.9610
2022-12-31T01:12:29.557Z,919.4210
2022-12-31T01:12:40.629Z,917.5260
2022-12-31T01:12:51.700Z,920.6900
2022-12-31T01:13:02.771Z,923.2370
2022-12-31T01:13:13.815Z,917.5260
2022-12-31T01:13:24.874Z,920.6900
2022-12-31T01:13:35.938Z,921.9610
2022-12-31T01:13:47.051Z,921.9610
2022-12-31T01:13:58.146Z,921.9610
2022-12-31T01:14:09.225Z,921.3250
2022-12-31T01:14:20.261Z,930.3140
2022-12-31T01:14:31.319Z,921.9610
2022-12-31T01:14:42.378Z,919.4210
2022-12-31T01:14:53.437Z,925.7980
2022-12-31T01:15:04.508Z,924.5150
2022-12-31T01:15:15.603Z,922.5980
2022-12-31T01:15:26.713Z,923.8750
2022-12-31T01:15:37.821Z,925.7980
2022-12-31T01:15:48.960Z,920.6900
2022-12-31T01:16:00.150Z,922.5980
2022-12-31T01:16:11.348Z,920.6900
2022-12-31T01:16:22.399Z,919.4210
2022-12-31T01:16:33.476Z,924.5150
2022-12-31T01:16:44.556Z,923.2370
2022-12-31T01:16:55.621Z,925.7980
2022-12-31T01:17:06.695Z,924.5150
2022-12-31T01:17:17.755Z,925.7980
2022-12-31T01:17:28.792Z,925.7980
2022-12-31T01:17:39.886Z,925.7980
2022-12-31T01:17:50.959Z,927.7280
2022-12-31T01:18:02.034Z,923.2370
2022-12-31T01:18:13.144Z,924.5150
2022-12-31T01:18:24.202Z,923.2370
2022-12-31T01:18:35.269Z,923.2370
2022-12-31T01:18:46.363Z,920.0550
2022-12-31T01:18:57.467Z,923.8750
2022-12-31T01:19:09.214Z,923.8750
2022-12-31T01:19:20.269Z,933.5660
2022-12-31T01:19:31.344Z,925.1560
2022-12-31T01:19:42.407Z,925.7980
2022-12-31T01:19:53.478Z,923.8750
2022-12-31T01:20:04.552Z,920.6900
2022-12-31T01:20:15.635Z,925.1560
2022-12-31T01:20:26.696Z,923.2370
2022-12-31T01:20:37.766Z,920.6900
2022-12-31T01:20:48.830Z,921.9610
2022-12-31T01:20:59.907Z,923.8750
2022-12-31T01:21:10.975Z,923.8750
2022-12-31T01:21:22.002Z,925.7980
2022-12-31T01:21:33.047Z,931.6120
2022-12-31T01:21:44.122Z,921.9610
2022-12-31T01:21:55.201Z,926.4400
2022-12-31T01:22:06.278Z,925.7980
2022-12-31T01:22:17.357Z,925.7980
2022-12-31T01:22:28.430Z,928.3730
2022-12-31T01:22:39.487Z,930.3140
2022-12-31T01:22:50.553Z,929.6660
2022-12-31T01:23:01.612Z,926.4400
2022-12-31T01:23:12.721Z,925.7980
2022-12-31T01:23:23.759Z,924.5150
2022-12-31T01:23:34.812Z,938.1590
2022-12-31T01:23:45.903Z,927.0830
2022-12-31T01:23:56.967Z,927.0830
2022-12-31T01:24:08.055Z,923.2370
2022-12-31T01:24:19.147Z,928.3730
2022-12-31T01:24:30.212Z,927.0830
2022-12-31T01:24:41.282Z,927.0830
2022-12-31T01:24:52.352Z,929.6660
2022-12-31T01:25:03.424Z,927.7280
2022-12-31T01:25:14.509Z,926.4400
2022-12-31T01:25:25.567Z,925.7980
2022-12-31T01:25:36.639Z,928.3730
2022-12-31T01:25:47.696Z,929.6660
2022-12-31T01:25:58.817Z,928.3730
2022-12-31T01:26:09.877Z,926.4400
2022-12-31T01:26:20.937Z,928.3730
2022-12-31T01:26:32.035Z,930.3140
2022-12-31T01:26:43.089Z,925.7980
2022-12-31T01:26:54.160Z,929.6660
2022-12-31T01:27:05.231Z,927.0830
2022-12-31T01:27:16.304Z,929.0190
2022-12-31T01:27:27.367Z,928.3730
2022-12-31T01:27:38.428Z,927.7280
2022-12-31T01:27:49.501Z,929.0190
2022-12-31T01:28:00.567Z,929.0190
2022-12-31T01:28:11.629Z,927.7280
2022-12-31T01:28:22.687Z,928.3730
2022-12-31T01:28:33.760Z,923.2370
2022-12-31T01:28:44.815Z,924.5150
2022-12-31T01:28:55.875Z,927.7280
2022-12-31T01:29:06.933Z,926.4400
2022-12-31T01:29:18.028Z,928.3730
2022-12-31T01:29:29.097Z,926.4400
2022-12-31T01:29:40.156Z,921.3250
2022-12-31T01:29:51.226Z,932.2630
2022-12-31T01:30:02.271Z,927.0830
2022-12-31T01:30:13.352Z,927.0830
2022-12-31T01:30:24.389Z,926.4400
2022-12-31T01:30:35.489Z,929.6660
2022-12-31T01:30:46.586Z,932.2630
2022-12-31T01:30:57.675Z,929.0190
2022-12-31T01:31:08.850Z,928.3730
2022-12-31T01:31:20.041Z,928.3730
2022-12-31T01:31:31.260Z,922.5980
2022-12-31T01:31:42.308Z,927.7280
2022-12-31T01:31:53.371Z,927.7280
2022-12-31T01:32:04.444Z,936.1850
2022-12-31T01:32:15.519Z,926.4400
2022-12-31T01:32:26.599Z,925.7980
2022-12-31T01:32:37.677Z,929.6660
2022-12-31T01:32:48.727Z,927.0830
2022-12-31T01:32:59.812Z,921.9610
2022-12-31T01:33:10.867Z,926.4400
2022-12-31T01:33:21.960Z,930.9620
2022-12-31T01:33:33.027Z,927.7280
2022-12-31T01:33:44.079Z,929.0190
2022-12-31T01:33:55.184Z,928.3730
2022-12-31T01:34:06.236Z,926.4400
2022-12-31T01:34:17.304Z,936.1850
2022-12-31T01:34:28.411Z,927.7280
2022-12-31T01:34:39.462Z,921.9610
2022-12-31T01:34:50.560Z,925.7980
2022-12-31T01:35:01.617Z,928.3730
2022-12-31T01:35:12.676Z,925.7980
2022-12-31T01:35:23.761Z,929.6660
2022-12-31T01:35:34.826Z,925.7980
2022-12-31T01:35:45.899Z,929.6660
2022-12-31T01:35:56.990Z,930.3140
2022-12-31T01:36:08.085Z,924.5150
2022-12-31T01:36:25.380Z,927.0830
2022-12-31T01:36:36.114Z,916.8960
2022-12-31T01:36:47.181Z,914.3840
2022-12-31T01:36:58.219Z,925.7980
2022-12-31T01:37:09.294Z,926.4400
2022-12-31T01:37:20.366Z,927.0830
2022-12-31T01:37:31.432Z,923.2370
2022-12-31T01:37:42.496Z,921.3250
2022-12-31T01:37:53.581Z,923.2370
2022-12-31T01:38:04.653Z,920.0550
2022-12-31T01:38:15.848Z,925.7980
2022-12-31T01:38:26.917Z,930.3140
2022-12-31T01:38:37.991Z,925.7980
2022-12-31T01:38:49.067Z,926.4400
2022-12-31T01:39:00.132Z,921.9610
2022-12-31T01:39:11.219Z,923.8750
2022-12-31T01:39:22.259Z,919.4210
2022-12-31T01:39:33.349Z,924.5150
2022-12-31T01:39:44.396Z,921.9610
2022-12-31T01:39:55.456Z,927.0830
2022-12-31T01:40:06.524Z,925.7980
2022-12-31T01:40:17.581Z,922.5980
2022-12-31T01:40:28.664Z,926.4400
2022-12-31T01:40:39.720Z,930.3140
2022-12-31T01:40:50.796Z,923.8750
2022-12-31T01:41:01.866Z,923.2370
2022-12-31T01:41:12.939Z,925.7980
2022-12-31T01:41:24.008Z,927.0830
2022-12-31T01:41:35.091Z,923.2370
2022-12-31T01:41:46.144Z,923.2370
2022-12-31T01:41:57.187Z,925.7980
2022-12-31T01:42:08.220Z,928.3730
2022-12-31T01:42:19.281Z,925.7980
2022-12-31T01:42:30.356Z,925.7980
2022-12-31T01:42:41.434Z,932.9140
2022-12-31T01:42:52.500Z,926.4400
2022-12-31T01:43:03.583Z,929.6660
2022-12-31T01:43:14.630Z,929.6660
2022-12-31T01:43:25.686Z,929.0190
2022-12-31T01:43:36.748Z,925.7980
2022-12-31T01:43:47.824Z,929.0190
2022-12-31T01:43:58.888Z,930.3140
2022-12-31T01:44:09.962Z,929.6660
2022-12-31T01:44:21.038Z,929.6660
2022-12-31T01:44:32.117Z,927.0830
2022-12-31T01:44:43.307Z,929.0190
2022-12-31T01:44:54.378Z,933.5660
2022-12-31T01:45:05.426Z,927.7280
2022-12-31T01:45:16.494Z,928.3730
2022-12-31T01:45:27.564Z,929.0190
2022-12-31T01:45:38.629Z,930.9620
2022-12-31T01:45:49.697Z,922.5980
2022-12-31T01:46:00.846Z,937.5000
2022-12-31T01:46:11.979Z,925.1560
2022-12-31T01:46:23.123Z,927.7280
2022-12-31T01:46:34.200Z,930.3140
2022-12-31T01:46:45.298Z,928.3730
2022-12-31T01:46:56.377Z,935.5290
2022-12-31T01:47:07.421Z,926.4400
2022-12-31T01:47:18.512Z,928.3730
2022-12-31T01:47:29.558Z,936.1850
2022-12-31T01:47:40.637Z,942.7970
2022-12-31T01:47:51.703Z,929.6660
2022-12-31T01:48:02.780Z,922.5980
2022-12-31T01:48:13.841Z,927.0830
2022-12-31T01:48:24.909Z,930.9620
2022-12-31T01:48:35.971Z,929.6660
2022-12-31T01:48:47.041Z,921.9610
2022-12-31T01:48:58.115Z,928.3730
2022-12-31T01:49:09.187Z,930.3140
2022-12-31T01:49:20.270Z,927.0830
2022-12-31T01:49:31.339Z,928.3730
2022-12-31T01:49:42.404Z,930.9620
2022-12-31T01:49:53.527Z,938.8190
2022-12-31T01:50:04.590Z,927.7280
2022-12-31T01:50:15.653Z,928.3730
2022-12-31T01:50:26.724Z,926.4400
2022-12-31T01:50:37.777Z,923.2370
2022-12-31T01:50:48.845Z,934.8740
2022-12-31T01:50:59.910Z,923.8750
2022-12-31T01:51:10.997Z,927.0830
2022-12-31T01:51:22.067Z,925.7980
2022-12-31T01:51:33.116Z,934.8740
2022-12-31T01:51:44.191Z,927.0830
2022-12-31T01:51:55.267Z,927.7280
2022-12-31T01:52:06.307Z,928.3730
2022-12-31T01:52:17.351Z,926.4400
2022-12-31T01:52:28.442Z,923.8750
2022-12-31T01:52:39.529Z,928.3730
2022-12-31T01:52:50.608Z,927.0830
2022-12-31T01:53:01.686Z,930.9620
2022-12-31T01:53:12.738Z,927.0830
2022-12-31T01:53:23.830Z,925.7980
2022-12-31T01:53:34.871Z,925.1560
2022-12-31T01:53:45.928Z,934.2200
2022-12-31T01:53:57.012Z,928.3730
2022-12-31T01:54:08.061Z,927.7280
2022-12-31T01:54:19.128Z,923.2370
2022-12-31T01:54:30.192Z,925.7980
2022-12-31T01:54:41.279Z,926.4400
2022-12-31T01:54:52.331Z,929.0190
2022-12-31T01:55:03.444Z,932.2630
2022-12-31T01:55:14.515Z,927.7280
2022-12-31T01:55:25.578Z,927.0830
2022-12-31T01:55:36.652Z,926.4400
2022-12-31T01:55:47.741Z,927.0830
2022-12-31T01:55:58.805Z,928.3730
2022-12-31T01:56:09.868Z,928.3730
2022-12-31T01:56:20.939Z,929.6660
2022-12-31T01:56:32.012Z,928.3730
2022-12-31T01:56:43.076Z,926.4400
2022-12-31T01:56:54.149Z,922.5980
2022-12-31T01:57:05.277Z,924.5150
2022-12-31T01:57:16.317Z,925.7980
2022-12-31T01:57:27.431Z,925.1560
2022-12-31T01:57:38.549Z,925.7980
2022-12-31T01:57:49.598Z,927.0830
2022-12-31T01:58:00.679Z,926.4400
2022-12-31T01:58:11.743Z,934.8740
2022-12-31T01:58:22.799Z,923.2370
2022-12-31T01:58:33.856Z,927.7280
2022-12-31T01:58:44.921Z,929.0190
2022-12-31T01:58:55.978Z,927.7280
2022-12-31T01:59:07.041Z,924.5150
2022-12-31T01:59:18.115Z,928.3730
2022-12-31T01:59:29.185Z,928.3730
2022-12-31T01:59:40.294Z,928.3730
2022-12-31T01:59:51.381Z,922.5980
2022-12-31T02:00:02.477Z,927.0830
2022-12-31T02:00:13.566Z,925.7980
2022-12-31T02:00:24.643Z,927.0830
2022-12-31T02:00:35.703Z,925.7980
2022-12-31T02:00:46.803Z,935.5290
2022-12-31T02:00:57.932Z,926.4400
2022-12-31T02:01:09.016Z,927.7280
2022-12-31T02:01:20.205Z,923.2370
2022-12-31T02:01:31.451Z,923.8750
2022-12-31T02:01:42.718Z,925.7980
2022-12-31T02:01:54.147Z,921.3250
2022-12-31T02:02:05.765Z,923.8750
2022-12-31T02:02:17.162Z,924.5150
2022-12-31T02:02:28.409Z,919.4210
2022-12-31T02:02:39.669Z,922.5980
2022-12-31T02:02:51.197Z,924.5150
2022-12-31T02:03:02.588Z,924.5150
2022-12-31T02:03:13.781Z,917.5260
2022-12-31T02:03:24.908Z,920.6900
2022-12-31T02:03:35.947Z,923.8750
2022-12-31T02:03:47.015Z,915.6380
2022-12-31T02:03:58.079Z,925.1560
2022-12-31T02:04:09.137Z,915.6380
2022-12-31T02:04:20.207Z,924.5150
2022-12-31T02:04:31.272Z,921.9610
2022-12-31T02:04:42.317Z,924.5150
2022-12-31T02:04:53.407Z,922.5980
2022-12-31T02:05:04.476Z,925.1560
2022-12-31T02:05:15.568Z,924.5150
2022-12-31T02:05:26.627Z,923.2370
2022-12-31T02:05:37.677Z,930.3140
2022-12-31T02:05:48.751Z,924.5150
2022-12-31T02:05:59.829Z,921.9610
2022-12-31T02:06:10.913Z,925.7980
2022-12-31T02:06:21.988Z,923.2370
2022-12-31T02:06:33.028Z,927.0830
2022-12-31T02:06:44.107Z,934.8740
2022-12-31T02:06:55.147Z,921.9610
2022-12-31T02:07:06.213Z,924.5150
2022-12-31T02:07:17.268Z,922.5980
2022-12-31T02:07:28.341Z,925.1560
2022-12-31T02:07:39.400Z,924.5150
2022-12-31T02:07:50.476Z,925.7980
2022-12-31T02:08:01.537Z,929.6660
2022-12-31T02:08:12.594Z,925.7980
2022-12-31T02:08:23.665Z,929.6660
2022-12-31T02:08:41.577Z,921.9610
2022-12-31T02:08:51.696Z,918.7890
2022-12-31T02:09:02.773Z,916.2660
2022-12-31T02:09:13.847Z,918.1570
2022-12-31T02:09:24.921Z,918.1570
2022-12-31T02:09:35.976Z,919.4210
2022-12-31T02:09:47.037Z,920.6900
2022-12-31T02:09:58.121Z,920.0550
2022-12-31T02:10:09.213Z,925.7980
2022-12-31T02:10:20.338Z,918.7890
2022-12-31T02:10:31.401Z,925.1560
2022-12-31T02:10:42.505Z,921.9610
2022-12-31T02:10:53.556Z,925.7980